createdAt,value
2019-05-22T00:01:50.894Z,39.70
2019-05-22T00:05:06.173Z,38.93
2019-05-22T00:08:11.600Z,46.10
2019-05-22T00:11:19.894Z,41.20
2019-05-22T00:14:29.454Z,44.43
2019-05-22T00:17:36.749Z,39.40
2019-05-22T00:20:42.039Z,40.70
2019-05-22T00:23:47.513Z,49.37
2019-05-22T00:26:55.594Z,38.67
2019-05-22T00:30:02.940Z,42.10
2019-05-22T00:33:09.821Z,42.07
2019-05-22T00:36:16.776Z,44.53
2019-05-22T00:39:22.042Z,43.80
2019-05-22T00:42:28.081Z,42.27
2019-05-22T00:45:33.419Z,43.93
2019-05-22T00:48:43.950Z,42.07
2019-05-22T00:52:07.453Z,44.10
2019-05-22T00:55:25.323Z,43.47
2019-05-22T00:58:40.193Z,39.70
2019-05-22T01:01:47.948Z,34.67
2019-05-22T01:04:54.783Z,45.07
2019-05-22T01:08:01.728Z,47.17
2019-05-22T01:11:08.421Z,51.63
2019-05-22T01:14:14.392Z,40.60
2019-05-22T01:17:21.701Z,46.77
2019-05-22T01:20:29.260Z,45.47
2019-05-22T01:23:38.896Z,44.50
2019-05-22T01:26:46.553Z,48.73
2019-05-22T01:29:53.753Z,47.47
2019-05-22T01:33:01.893Z,52.73
2019-05-22T01:36:25.275Z,41.90
2019-05-22T01:39:47.485Z,49.23
2019-05-22T01:42:58.966Z,41.23
2019-05-22T01:46:06.259Z,42.70
2019-05-22T01:49:13.158Z,37.27
2019-05-22T01:52:20.339Z,48.27
2019-05-22T01:55:26.398Z,46.17
2019-05-22T01:58:33.915Z,42.07
2019-05-22T02:01:42.153Z,50.23
2019-05-22T02:04:47.398Z,45.70
2019-05-22T02:07:54.016Z,42.37
2019-05-22T02:11:02.424Z,40.47
2019-05-22T02:14:14.663Z,41.70
2019-05-22T02:17:25.713Z,51.10
2019-05-22T02:20:31.028Z,44.23
2019-05-22T02:23:38.403Z,38.13
2019-05-22T02:26:47.090Z,43.53
2019-05-22T02:29:55.096Z,38.77
2019-05-22T02:33:01.449Z,45.20
2019-05-22T02:36:06.840Z,40.77
2019-05-22T02:39:21.439Z,39.93
2019-05-22T02:42:33.079Z,43.40
2019-05-22T02:45:38.368Z,41.80
2019-05-22T02:48:44.447Z,34.97
2019-05-22T02:51:50.574Z,36.90
2019-05-22T02:54:56.584Z,37.00
2019-05-22T02:58:03.699Z,41.70
2019-05-22T03:01:09.774Z,41.20
2019-05-22T03:04:15.911Z,37.47
2019-05-22T03:07:22.768Z,45.17
2019-05-22T03:10:32.782Z,52.93
2019-05-22T03:13:59.767Z,40.60
2019-05-22T03:17:09.700Z,36.00
2019-05-22T03:20:19.529Z,35.87
2019-05-22T03:23:40.258Z,32.57
2019-05-22T03:26:48.950Z,34.97
2019-05-22T03:29:56.590Z,31.37
2019-05-22T03:33:08.100Z,30.57
2019-05-22T03:36:17.972Z,30.43
2019-05-22T03:39:23.294Z,39.40
2019-05-22T03:42:28.609Z,44.93
2019-05-22T03:45:34.850Z,43.03
2019-05-22T03:48:40.307Z,38.87
2019-05-22T03:51:49.351Z,35.07
2019-05-22T03:54:55.822Z,38.30
2019-05-22T03:58:01.015Z,34.63
2019-05-22T04:01:08.256Z,37.83
2019-05-22T04:04:21.835Z,35.10
2019-05-22T04:07:28.646Z,41.93
2019-05-22T04:10:41.274Z,33.43
2019-05-22T04:13:46.672Z,33.73
2019-05-22T04:16:53.277Z,36.27
2019-05-22T04:19:58.749Z,39.90
2019-05-22T04:23:04.069Z,40.87
2019-05-22T04:26:11.871Z,36.47
2019-05-22T04:29:17.357Z,32.47
2019-05-22T04:32:31.505Z,33.40
2019-05-22T04:35:37.410Z,31.10
2019-05-22T04:38:43.183Z,27.77
2019-05-22T04:41:48.366Z,30.30
2019-05-22T04:45:12.302Z,23.63
2019-05-22T04:48:17.737Z,23.63
2019-05-22T04:51:31.041Z,20.37
2019-05-22T04:54:36.567Z,19.97
2019-05-22T04:57:42.247Z,20.97
2019-05-22T05:00:47.595Z,20.60
2019-05-22T05:03:54.531Z,21.37
2019-05-22T05:07:02.251Z,19.87
2019-05-22T05:10:09.304Z,22.10
2019-05-22T05:13:14.511Z,22.33
2019-05-22T05:16:20.079Z,20.53
2019-05-22T05:19:27.605Z,20.27
2019-05-22T05:22:42.856Z,22.30
2019-05-22T05:25:49.003Z,21.90
2019-05-22T05:28:54.662Z,31.73
2019-05-22T05:32:01.246Z,25.40
2019-05-22T05:35:10.929Z,22.13
2019-05-22T05:42:28.274Z,23.80
2019-05-22T05:54:14.030Z,25.27
2019-05-22T05:58:11.866Z,23.17
2019-05-22T06:01:32.821Z,21.33
2019-05-22T06:04:39.484Z,30.33
2019-05-22T06:12:12.071Z,22.27
2019-05-22T06:13:01.313Z,22.30
2019-05-22T06:15:48.436Z,20.10
2019-05-22T06:19:17.689Z,20.87
2019-05-22T06:22:23.081Z,20.27
2019-05-22T06:25:29.164Z,20.47
2019-05-22T06:28:41.116Z,20.70
2019-05-22T06:32:11.270Z,19.23
2019-05-22T06:35:16.410Z,24.50
2019-05-22T06:38:47.764Z,19.17
2019-05-22T06:41:52.965Z,18.93
2019-05-22T06:44:59.733Z,20.30
2019-05-22T06:48:05.516Z,26.20
2019-05-22T06:51:28.437Z,22.50
2019-05-22T06:54:36.191Z,25.67
2019-05-22T06:57:41.337Z,22.23
2019-05-22T07:00:47.951Z,20.97
2019-05-22T07:03:53.470Z,20.27
2019-05-22T07:07:01.967Z,19.23
2019-05-22T07:10:12.050Z,23.53
2019-05-22T07:13:17.948Z,21.93
2019-05-22T07:16:23.120Z,14.73
2019-05-22T07:19:30.127Z,18.30
2019-05-22T07:22:40.096Z,25.40
2019-05-22T07:25:44.495Z,16.10
2019-05-22T07:28:51.946Z,16.53
2019-05-22T07:32:02.333Z,16.93
2019-05-22T07:35:08.461Z,17.20
2019-05-22T07:38:14.713Z,17.20
2019-05-22T07:41:20.301Z,15.87
2019-05-22T07:44:25.538Z,15.90
2019-05-22T07:47:32.473Z,19.17
2019-05-22T07:50:42.288Z,13.60
2019-05-22T07:53:47.474Z,20.93
2019-05-22T07:56:52.757Z,12.47
2019-05-22T07:59:57.996Z,16.90
2019-05-22T08:03:03.670Z,14.70
2019-05-22T08:06:09.715Z,13.33
2019-05-22T08:09:16.307Z,15.73
2019-05-22T08:12:23.143Z,14.07
2019-05-22T08:15:28.723Z,16.63
2019-05-22T08:18:37.688Z,15.73
2019-05-22T08:21:42.989Z,15.87
2019-05-22T08:24:52.337Z,13.83
2019-05-22T08:27:58.467Z,13.60
2019-05-22T08:31:04.219Z,17.60
2019-05-22T08:34:10.092Z,15.27
2019-05-22T08:37:19.893Z,13.90
2019-05-22T08:40:26.151Z,11.70
2019-05-22T08:43:50.886Z,11.97
2019-05-22T08:46:40.467Z,11.80
2019-05-22T08:49:46.280Z,14.40
2019-05-22T08:52:51.648Z,14.00
2019-05-22T08:55:57.844Z,11.83
2019-05-22T08:59:18.471Z,12.20
2019-05-22T09:02:11.871Z,12.03
2019-05-22T09:14:14.401Z,11.60
2019-05-22T09:17:20.314Z,13.43
2019-05-22T09:20:25.983Z,11.10
2019-05-22T09:23:32.696Z,13.23
2019-05-22T09:26:38.809Z,15.93
2019-05-22T09:29:51.132Z,14.10
2019-05-22T09:32:57.054Z,11.97
2019-05-22T09:36:02.751Z,13.87
2019-05-22T09:39:09.443Z,13.80
2019-05-22T09:42:15.205Z,14.53
2019-05-22T09:45:20.821Z,14.37
2019-05-22T09:49:35.453Z,17.57
2019-05-22T09:52:56.418Z,13.40
2019-05-22T09:55:51.456Z,14.10
2019-05-22T09:58:56.577Z,17.27
2019-05-22T10:02:01.778Z,15.67
2019-05-22T10:05:08.008Z,16.00
2019-05-22T10:08:13.207Z,14.87
2019-05-22T10:11:50.760Z,13.27
2019-05-22T10:14:55.877Z,13.00
2019-05-22T10:18:01.355Z,15.77
2019-05-22T10:21:06.704Z,13.50
2019-05-22T10:24:12.434Z,11.60
2019-05-22T10:27:19.007Z,13.37
2019-05-22T10:30:25.954Z,14.10
2019-05-22T10:33:41.518Z,15.10
2019-05-22T10:36:49.528Z,12.30
2019-05-22T10:39:54.941Z,11.60
2019-05-22T10:43:00.234Z,11.97
2019-05-22T10:46:06.085Z,11.33
2019-05-22T10:49:11.290Z,9.70
2019-05-22T10:52:16.949Z,8.13
2019-05-22T10:55:23.920Z,13.43
2019-05-22T10:58:30.571Z,10.60
2019-05-22T11:01:37.676Z,12.80
2019-05-22T11:04:46.591Z,10.23
2019-05-22T11:07:52.475Z,13.70
2019-05-22T11:10:58.024Z,10.70
2019-05-22T11:14:04.111Z,11.00
2019-05-22T11:17:10.252Z,8.50
2019-05-22T11:20:33.793Z,10.13
2019-05-22T11:23:51.553Z,8.10
2019-05-22T11:26:47.202Z,12.13
2019-05-22T11:29:53.167Z,9.43
2019-05-22T11:32:59.006Z,9.50
2019-05-22T11:36:05.612Z,10.70
2019-05-22T11:39:13.957Z,9.60
2019-05-22T11:42:22.002Z,9.67
2019-05-22T11:45:27.953Z,8.60
2019-05-22T11:48:33.087Z,9.07
2019-05-22T11:51:38.998Z,9.67
2019-05-22T11:54:44.994Z,9.50
2019-05-22T11:57:52.184Z,11.70
2019-05-22T12:00:57.453Z,9.90
2019-05-22T12:04:03.897Z,10.33
2019-05-22T12:07:09.772Z,10.07
2019-05-22T12:10:16.452Z,10.23
2019-05-22T12:13:23.945Z,10.33
2019-05-22T12:16:29.695Z,6.47
2019-05-22T12:19:35.137Z,9.40
2019-05-22T12:22:40.538Z,11.03
2019-05-22T12:25:45.767Z,5.83
2019-05-22T12:28:51.237Z,7.87
2019-05-22T12:31:56.511Z,10.70
2019-05-22T12:35:01.753Z,8.50
2019-05-22T12:38:08.031Z,8.57
2019-05-22T12:41:15.314Z,7.37
2019-05-22T12:44:20.947Z,8.10
2019-05-22T12:47:30.023Z,8.80
2019-05-22T12:50:42.843Z,7.97
2019-05-22T12:53:48.453Z,8.60
2019-05-22T12:56:54.124Z,8.40
2019-05-22T13:00:02.533Z,8.63
2019-05-22T13:03:07.739Z,7.40
2019-05-22T13:06:13.781Z,7.33
2019-05-22T13:09:19.292Z,8.67
2019-05-22T13:12:24.959Z,8.23
2019-05-22T13:15:32.132Z,6.77
2019-05-22T13:18:39.912Z,7.40
2019-05-22T13:21:48.010Z,7.90
2019-05-22T13:24:53.283Z,7.77
2019-05-22T13:27:59.922Z,6.47
2019-05-22T13:31:05.963Z,8.97
2019-05-22T13:34:14.909Z,7.20
2019-05-22T13:37:20.219Z,8.60
2019-05-22T13:44:30.140Z,6.97
2019-05-22T13:47:35.895Z,4.97
2019-05-22T13:50:42.613Z,7.60
2019-05-22T13:53:48.628Z,6.20
2019-05-22T13:56:56.364Z,6.87
2019-05-22T14:00:01.735Z,7.37
2019-05-22T14:03:07.124Z,7.70
2019-05-22T14:10:35.188Z,10.17
2019-05-22T14:13:41.246Z,6.20
2019-05-22T14:16:48.977Z,9.13
2019-05-22T14:19:53.514Z,8.67
2019-05-22T14:22:58.660Z,7.80
2019-05-22T14:26:03.820Z,7.47
2019-05-22T14:29:09.030Z,8.93
2019-05-22T14:32:15.127Z,6.13
2019-05-22T14:35:22.311Z,7.90
2019-05-22T14:38:27.709Z,11.00
2019-05-22T14:41:32.869Z,8.80
2019-05-22T14:44:38.031Z,8.73
2019-05-22T14:47:43.475Z,7.57
2019-05-22T14:50:48.824Z,9.40
2019-05-22T14:53:57.051Z,6.33
2019-05-22T14:57:37.008Z,6.43
2019-05-22T15:00:50.748Z,7.10
2019-05-22T15:03:56.259Z,7.87
2019-05-22T15:07:02.597Z,6.40
2019-05-22T15:10:08.321Z,5.33
2019-05-22T15:13:13.718Z,5.60
2019-05-22T15:16:19.456Z,7.53
2019-05-22T15:19:24.762Z,8.17
2019-05-22T15:22:30.098Z,5.30
2019-05-22T15:25:35.692Z,8.10
2019-05-22T15:28:41.503Z,7.87
2019-05-22T15:31:47.150Z,6.17
2019-05-22T15:34:52.859Z,6.90
2019-05-22T15:38:02.450Z,5.33
2019-05-22T15:41:09.569Z,6.07
2019-05-22T15:44:17.085Z,7.47
2019-05-22T15:47:22.910Z,6.80
2019-05-22T15:50:32.047Z,8.23
2019-05-22T15:53:40.609Z,7.47
2019-05-22T15:56:49.086Z,7.03
2019-05-22T15:59:58.242Z,4.73
2019-05-22T16:03:10.791Z,5.93
2019-05-22T16:06:16.383Z,4.70
2019-05-22T16:09:23.618Z,5.40
2019-05-22T16:12:29.411Z,6.93
2019-05-22T16:15:38.158Z,6.70
2019-05-22T16:18:45.183Z,8.17
2019-05-22T16:21:54.176Z,6.07
2019-05-22T16:24:59.425Z,5.33
2019-05-22T16:28:05.524Z,7.00
2019-05-22T16:31:29.459Z,7.80
2019-05-22T16:34:35.186Z,6.57
2019-05-22T16:37:40.544Z,6.00
2019-05-22T16:40:46.025Z,6.50
2019-05-22T16:43:52.541Z,6.17
2019-05-22T16:47:03.497Z,6.67
2019-05-22T16:50:07.724Z,5.07
2019-05-22T16:53:16.117Z,6.33
2019-05-22T16:56:23.342Z,6.90
2019-05-22T16:59:36.112Z,6.80
2019-05-22T17:02:42.059Z,6.67
2019-05-22T17:05:47.435Z,6.57
2019-05-22T17:08:57.651Z,4.67
2019-05-22T17:12:07.832Z,4.53
2019-05-22T17:15:16.061Z,3.93
2019-05-22T17:18:23.875Z,4.60
2019-05-22T17:21:29.719Z,3.70
2019-05-22T17:24:35.027Z,5.80
2019-05-22T17:27:40.859Z,5.30
2019-05-22T17:30:48.623Z,5.47
2019-05-22T17:33:54.311Z,6.50
2019-05-22T17:37:02.513Z,5.17
2019-05-22T17:40:09.489Z,5.23
2019-05-22T17:43:16.231Z,9.10
2019-05-22T17:46:23.191Z,7.17
2019-05-22T17:49:30.010Z,7.30
2019-05-22T17:52:38.164Z,7.47
2019-05-22T17:55:45.580Z,3.73
2019-05-22T17:58:51.211Z,6.47
2019-05-22T18:01:57.304Z,6.77
2019-05-22T18:05:06.507Z,5.50
2019-05-22T18:08:11.524Z,4.93
2019-05-22T18:11:16.887Z,4.57
2019-05-22T18:14:24.797Z,5.30
2019-05-22T18:17:30.344Z,4.30
2019-05-22T18:20:43.432Z,5.10
2019-05-22T18:23:47.495Z,5.20
2019-05-22T18:26:52.896Z,5.60
2019-05-22T18:29:58.151Z,4.73
2019-05-22T18:33:03.665Z,4.80
2019-05-22T18:36:09.105Z,7.00
2019-05-22T18:39:16.537Z,6.57
2019-05-22T18:42:22.096Z,6.90
2019-05-22T18:45:27.772Z,6.97
2019-05-22T18:48:33.355Z,4.60
2019-05-22T18:51:38.829Z,7.10
2019-05-22T18:54:44.481Z,5.47
2019-05-22T18:57:49.931Z,5.97
2019-05-22T19:00:55.155Z,4.97
2019-05-22T19:04:00.475Z,4.93
2019-05-22T19:07:07.265Z,6.73
2019-05-22T19:10:12.995Z,6.40
2019-05-22T19:13:20.863Z,5.10
2019-05-22T19:16:27.025Z,6.77
2019-05-22T19:19:40.086Z,6.10
2019-05-22T19:22:59.411Z,7.13
2019-05-22T19:25:53.286Z,7.30
2019-05-22T19:28:58.922Z,10.80
2019-05-22T19:32:05.674Z,12.93
2019-05-22T19:35:13.722Z,7.00
2019-05-22T19:38:19.150Z,7.67
2019-05-22T19:41:25.137Z,6.73
2019-05-22T19:44:31.869Z,8.40
2019-05-22T19:47:37.396Z,8.60
2019-05-22T19:50:43.030Z,9.80
2019-05-22T19:53:48.825Z,6.90
2019-05-22T19:56:54.147Z,6.03
2019-05-22T19:59:59.699Z,17.23
2019-05-22T20:03:06.656Z,6.80
2019-05-22T20:06:12.567Z,11.10
2019-05-22T20:09:26.320Z,8.83
2019-05-22T20:12:31.944Z,8.63
2019-05-22T20:15:38.707Z,9.20
2019-05-22T20:18:44.026Z,8.40
2019-05-22T20:21:49.468Z,10.87
2019-05-22T20:24:56.191Z,9.97
2019-05-22T20:28:02.771Z,7.97
2019-05-22T20:31:08.911Z,7.57
2019-05-22T20:34:16.430Z,8.83
2019-05-22T20:37:22.857Z,11.03
2019-05-22T20:40:28.849Z,7.77
2019-05-22T20:43:37.996Z,9.03
2019-05-22T20:46:45.091Z,7.80
2019-05-22T20:49:51.600Z,8.30
2019-05-22T20:52:57.191Z,10.00
2019-05-22T20:56:03.474Z,9.37
2019-05-22T20:59:10.760Z,8.67
2019-05-22T21:02:16.809Z,10.30
2019-05-22T21:05:27.070Z,9.20
2019-05-22T21:08:32.789Z,13.83
2019-05-22T21:11:39.061Z,9.43
2019-05-22T21:14:44.267Z,9.57
2019-05-22T21:17:50.517Z,10.93
2019-05-22T21:20:55.841Z,9.93
2019-05-22T21:24:09.993Z,14.83
2019-05-22T21:27:09.199Z,11.17
2019-05-22T21:30:15.558Z,10.50
2019-05-22T21:33:22.643Z,12.27
2019-05-22T21:36:29.051Z,13.90
2019-05-22T21:39:37.846Z,11.70
2019-05-22T21:42:45.448Z,10.40
2019-05-22T21:45:50.661Z,12.30
2019-05-22T21:48:57.824Z,9.53
2019-05-22T21:52:05.531Z,11.57
2019-05-22T21:55:12.480Z,13.83
2019-05-22T21:58:18.334Z,13.17
2019-05-22T22:01:35.772Z,9.80
2019-05-22T22:04:41.405Z,13.70
2019-05-22T22:07:46.772Z,11.33
2019-05-22T22:10:52.468Z,14.90
2019-05-22T22:13:58.090Z,14.67
2019-05-22T22:17:09.411Z,15.10
2019-05-22T22:20:12.756Z,12.67
2019-05-22T22:23:20.571Z,16.23
2019-05-22T22:26:26.711Z,13.47
2019-05-22T22:29:33.118Z,15.20
2019-05-22T22:32:39.987Z,12.70
2019-05-22T22:35:45.785Z,15.43
2019-05-22T22:38:51.729Z,14.87
2019-05-22T22:41:59.757Z,16.30
2019-05-22T22:45:15.241Z,19.90
2019-05-22T22:48:23.021Z,15.80
2019-05-22T22:51:30.493Z,14.67
2019-05-22T22:54:35.750Z,14.87
2019-05-22T22:57:41.018Z,18.33
2019-05-22T23:00:54.713Z,14.73
2019-05-22T23:03:58.184Z,16.67
2019-05-22T23:07:07.764Z,19.63
2019-05-22T23:10:14.508Z,17.80
2019-05-22T23:13:21.556Z,18.17
2019-05-22T23:16:27.565Z,18.00
2019-05-22T23:19:40.919Z,18.17
2019-05-22T23:22:46.434Z,18.43
2019-05-22T23:25:51.651Z,18.50
2019-05-22T23:28:57.289Z,18.03
2019-05-22T23:32:04.226Z,17.23
2019-05-22T23:35:09.598Z,18.70
2019-05-22T23:38:15.402Z,25.23
2019-05-22T23:41:21.538Z,18.93
2019-05-22T23:44:27.084Z,20.10
2019-05-22T23:47:33.233Z,20.03
2019-05-22T23:50:39.186Z,20.90
2019-05-22T23:53:45.808Z,22.10
2019-05-22T23:56:56.300Z,18.83
